Time;durP1;ratioP1;P1;durP2;ratioP2;P2;SDS_P1;SDS_P2;PMS_P1;PMS_P2;Temp;Humidity;BMP_temperature;BMP_pressure;BME280_temperature;BME280_humidity;BME280_pressure;Samples;Min_cycle;Max_cycle;Signal;HPM_P1;HPM_P2
2022/03/14 00:02:04;;;;;;;4.55;2.35;;;;;;;;;;5051755;28;20059;-64
2022/03/14 00:04:29;;;;;;;4.93;2.55;;;;;;;;;;5046131;28;20039;-63
2022/03/14 00:06:55;;;;;;;3.72;2.20;;;;;;;;;;5049640;28;20047;-65
2022/03/14 00:09:21;;;;;;;3.75;2.60;;;;;;;;;;5051418;28;20039;-65
2022/03/14 00:11:46;;;;;;;3.97;2.50;;;;;;;;;;5050083;28;20055;-65
2022/03/14 00:14:12;;;;;;;3.55;2.45;;;;;;;;;;5046620;28;20472;-65
2022/03/14 00:16:43;;;;;;;4.88;2.30;;;;;;;;;;5045850;28;20030;-64
2022/03/14 00:19:09;;;;;;;5.25;2.47;;;;;;;;;;5051066;28;20037;-64
2022/03/14 00:21:38;;;;;;;3.67;2.35;;;;;;;;;;5047772;28;20033;-64
2022/03/14 00:24:05;;;;;;;3.60;2.30;;;;;;;;;;5031279;28;20033;-65
2022/03/14 00:26:31;;;;;;;4.18;2.58;;;;;;;;;;5039204;28;20047;-64
2022/03/14 00:28:56;;;;;;;3.08;2.13;;;;;;;;;;5050909;28;20455;-65
2022/03/14 00:31:22;;;;;;;4.50;2.45;;;;;;;;;;5049060;28;20029;-65
2022/03/14 00:33:47;;;;;;;4.43;2.10;;;;;;;;;;5032930;28;20156;-67
2022/03/14 00:36:13;;;;;;;3.90;2.35;;;;;;;;;;5041292;28;20056;-66
2022/03/14 00:38:39;;;;;;;3.05;2.25;;;;;;;;;;5049575;28;20033;-65
2022/03/14 00:41:07;;;;;;;4.22;2.33;;;;;;;;;;5049935;28;20525;-65
2022/03/14 00:43:34;;;;;;;4.82;2.50;;;;;;;;;;5048852;28;20029;-64
2022/03/14 00:45:59;;;;;;;3.75;2.30;;;;;;;;;;5050031;28;20028;-64
2022/03/14 00:48:25;;;;;;;3.70;2.10;;;;;;;;;;5049238;28;20040;-66
2022/03/14 00:50:51;;;;;;;3.47;2.10;;;;;;;;;;5044134;28;20025;-64
2022/03/14 00:53:17;;;;;;;3.75;2.30;;;;;;;;;;5048135;28;20033;-65
2022/03/14 00:55:43;;;;;;;3.83;2.30;;;;;;;;;;5047417;28;20091;-64
2022/03/14 00:58:08;;;;;;;4.55;2.30;;;;;;;;;;5035392;28;20033;-64
2022/03/14 01:00:34;;;;;;;3.25;2.17;;;;;;;;;;5057221;28;20474;-64
2022/03/14 01:03:00;;;;;;;3.65;2.13;;;;;;;;;;5048264;28;20120;-64
2022/03/14 01:05:28;;;;;;;3.90;2.35;;;;;;;;;;5047502;28;20045;-64
2022/03/14 01:07:54;;;;;;;4.22;2.55;;;;;;;;;;5045119;28;20028;-64
2022/03/14 01:10:20;;;;;;;3.75;2.33;;;;;;;;;;5048769;28;20025;-65
2022/03/14 01:12:45;;;;;;;4.00;2.50;;;;;;;;;;5046178;28;20569;-64
2022/03/14 01:15:11;;;;;;;4.75;2.72;;;;;;;;;;5049285;28;20029;-64
2022/03/14 01:17:36;;;;;;;4.35;2.55;;;;;;;;;;5047028;28;20037;-64
2022/03/14 01:20:03;;;;;;;5.65;2.67;;;;;;;;;;5046456;28;20053;-64
2022/03/14 01:22:29;;;;;;;5.60;2.50;;;;;;;;;;5043938;28;20044;-64
2022/03/14 01:24:54;;;;;;;4.57;2.47;;;;;;;;;;5044932;28;20036;-63
2022/03/14 01:27:20;;;;;;;4.72;2.60;;;;;;;;;;5048500;28;20512;-63
2022/03/14 01:29:45;;;;;;;4.43;2.45;;;;;;;;;;5047697;28;20543;-64
2022/03/14 01:32:11;;;;;;;5.25;2.67;;;;;;;;;;5048351;28;20033;-65
2022/03/14 01:34:36;;;;;;;5.32;2.30;;;;;;;;;;5046699;28;20040;-63
2022/03/14 01:37:02;;;;;;;3.72;2.05;;;;;;;;;;5043123;28;20395;-63
2022/03/14 01:39:28;;;;;;;3.80;2.40;;;;;;;;;;5046013;28;20033;-65
2022/03/14 01:41:55;;;;;;;3.65;2.50;;;;;;;;;;5051924;28;20493;-65
2022/03/14 01:44:21;;;;;;;4.47;2.33;;;;;;;;;;5052425;28;20147;-64
2022/03/14 01:46:48;;;;;;;7.35;2.90;;;;;;;;;;5051155;28;20094;-64
2022/03/14 01:49:14;;;;;;;6.05;3.08;;;;;;;;;;5050924;28;20100;-64
2022/03/14 01:51:40;;;;;;;4.40;2.50;;;;;;;;;;5051424;28;20506;-64
2022/03/14 01:54:08;;;;;;;4.97;2.60;;;;;;;;;;5065088;28;20072;-64
2022/03/14 01:56:35;;;;;;;4.38;2.80;;;;;;;;;;5053042;28;20127;-63
2022/03/14 01:59:01;;;;;;;5.95;2.70;;;;;;;;;;5051051;28;20040;-64
2022/03/14 02:01:27;;;;;;;5.40;2.70;;;;;;;;;;5050318;28;20028;-65
2022/03/14 02:03:53;;;;;;;5.72;2.88;;;;;;;;;;5034497;28;20041;-64
2022/03/14 02:06:19;;;;;;;5.00;2.65;;;;;;;;;;5046098;28;20041;-64
2022/03/14 02:08:44;;;;;;;5.38;3.00;;;;;;;;;;5052953;28;20033;-64
2022/03/14 02:11:10;;;;;;;4.40;2.78;;;;;;;;;;5048581;28;20057;-64
2022/03/14 02:13:35;;;;;;;5.55;3.10;;;;;;;;;;5038311;28;20029;-63
2022/03/14 02:16:01;;;;;;;5.85;3.40;;;;;;;;;;5049290;28;20028;-64
2022/03/14 02:18:26;;;;;;;5.95;3.33;;;;;;;;;;5052088;28;20033;-65
2022/03/14 02:20:52;;;;;;;6.10;3.17;;;;;;;;;;5046829;28;20144;-65
2022/03/14 02:23:17;;;;;;;5.57;3.20;;;;;;;;;;5053693;28;20029;-64
2022/03/14 02:25:50;;;;;;;4.90;3.17;;;;;;;;;;5049280;28;20029;-63
2022/03/14 02:28:22;;;;;;;6.68;3.55;;;;;;;;;;5047107;28;20040;-64
2022/03/14 02:30:47;;;;;;;5.50;3.42;;;;;;;;;;5036167;28;20029;-64
2022/03/14 02:33:13;;;;;;;6.43;3.60;;;;;;;;;;5049935;28;20033;-64
2022/03/14 02:35:42;;;;;;;7.20;3.38;;;;;;;;;;5048235;28;20033;-64
2022/03/14 02:38:19;;;;;;;11.48;4.50;;;;;;;;;;5050502;28;20036;-63
2022/03/14 02:40:46;;;;;;;6.20;3.80;;;;;;;;;;5047835;28;20032;-64
2022/03/14 02:43:15;;;;;;;8.32;3.72;;;;;;;;;;5051434;28;20033;-64
2022/03/14 02:45:43;;;;;;;5.60;3.58;;;;;;;;;;5048544;28;20032;-64
2022/03/14 02:48:09;;;;;;;5.57;3.70;;;;;;;;;;5049117;28;20090;-63
2022/03/14 02:50:37;;;;;;;7.10;3.60;;;;;;;;;;5046829;28;20476;-63
2022/03/14 02:53:03;;;;;;;6.18;3.78;;;;;;;;;;5041779;28;20108;-64
2022/03/14 02:55:28;;;;;;;6.68;4.10;;;;;;;;;;5049038;28;20170;-64
2022/03/14 02:57:54;;;;;;;6.75;3.78;;;;;;;;;;5049998;28;20839;-63
2022/03/14 03:00:19;;;;;;;6.22;4.00;;;;;;;;;;5051800;28;20039;-63
2022/03/14 03:02:44;;;;;;;7.53;4.53;;;;;;;;;;5040751;28;20037;-63
2022/03/14 03:05:10;;;;;;;7.45;4.47;;;;;;;;;;5046337;28;20037;-62
2022/03/14 03:07:39;;;;;;;8.52;4.75;;;;;;;;;;5047021;28;20087;-63
2022/03/14 03:10:06;;;;;;;10.10;5.05;;;;;;;;;;5032681;28;20039;-62
2022/03/14 03:12:32;;;;;;;9.10;5.30;;;;;;;;;;5035755;28;20482;-62
2022/03/14 03:14:58;;;;;;;10.65;5.47;;;;;;;;;;5050717;28;20033;-62
2022/03/14 03:17:24;;;;;;;9.07;5.63;;;;;;;;;;5051178;28;20041;-61
2022/03/14 03:19:50;;;;;;;10.48;6.15;;;;;;;;;;5042159;28;20061;-61
2022/03/14 03:22:15;;;;;;;10.98;7.03;;;;;;;;;;5046862;28;20064;-61
2022/03/14 03:24:41;;;;;;;10.98;6.50;;;;;;;;;;5049753;28;20029;-63
2022/03/14 03:27:06;;;;;;;11.25;6.85;;;;;;;;;;5046957;28;20047;-63
2022/03/14 03:29:31;;;;;;;11.65;7.60;;;;;;;;;;5050894;28;20394;-63
2022/03/14 03:31:57;;;;;;;14.15;8.20;;;;;;;;;;5048722;28;20037;-63
2022/03/14 03:34:22;;;;;;;12.23;7.60;;;;;;;;;;5051620;28;20033;-63
2022/03/14 03:36:48;;;;;;;16.40;8.30;;;;;;;;;;5043316;28;20071;-64
2022/03/14 03:39:13;;;;;;;12.60;7.78;;;;;;;;;;5049774;28;21549;-63
2022/03/14 03:41:39;;;;;;;16.38;8.75;;;;;;;;;;5043613;28;20025;-63
2022/03/14 03:44:06;;;;;;;14.65;8.75;;;;;;;;;;5051378;28;20116;-63
2022/03/14 03:46:31;;;;;;;16.33;8.85;;;;;;;;;;5064318;28;20036;-63
2022/03/14 03:48:57;;;;;;;15.73;8.52;;;;;;;;;;5051184;28;20025;-64
2022/03/14 03:51:22;;;;;;;15.07;8.38;;;;;;;;;;5048482;28;20110;-63
2022/03/14 03:53:47;;;;;;;14.27;8.05;;;;;;;;;;5044332;28;20033;-63
2022/03/14 03:56:13;;;;;;;15.25;8.80;;;;;;;;;;5041063;28;20116;-63
2022/03/14 03:58:38;;;;;;;16.33;8.95;;;;;;;;;;5048560;28;20025;-63
2022/03/14 04:01:04;;;;;;;14.20;8.40;;;;;;;;;;5037587;28;20044;-62
2022/03/14 04:03:29;;;;;;;15.35;8.60;;;;;;;;;;5045834;28;20032;-63
2022/03/14 04:05:55;;;;;;;15.00;8.73;;;;;;;;;;5048209;28;21949;-63
2022/03/14 04:08:21;;;;;;;13.88;8.40;;;;;;;;;;5051506;28;20478;-63
2022/03/14 04:10:53;;;;;;;16.77;8.90;;;;;;;;;;5047351;28;20063;-63
2022/03/14 04:13:20;;;;;;;16.88;8.77;;;;;;;;;;5048630;28;20025;-63
2022/03/14 04:15:58;;;;;;;14.65;8.40;;;;;;;;;;5043471;28;20546;-63
2022/03/14 04:18:25;;;;;;;14.50;8.80;;;;;;;;;;5037126;28;20029;-63
2022/03/14 04:20:51;;;;;;;20.67;10.07;;;;;;;;;;5041283;28;20670;-62
2022/03/14 04:23:17;;;;;;;15.07;8.95;;;;;;;;;;5044969;28;20101;-62
2022/03/14 04:25:44;;;;;;;15.98;9.55;;;;;;;;;;5039325;28;20436;-62
2022/03/14 04:28:10;;;;;;;18.42;9.15;;;;;;;;;;5043868;28;20025;-63
2022/03/14 04:30:35;;;;;;;18.88;9.00;;;;;;;;;;5046701;28;20029;-62
2022/03/14 04:33:01;;;;;;;18.48;9.00;;;;;;;;;;5050507;28;20043;-62
2022/03/14 04:35:27;;;;;;;16.85;9.27;;;;;;;;;;5050509;28;20047;-62
2022/03/14 04:37:52;;;;;;;15.25;8.80;;;;;;;;;;5047506;28;20115;-62
2022/03/14 04:40:18;;;;;;;18.77;8.85;;;;;;;;;;5048921;28;20470;-62
2022/03/14 04:42:43;;;;;;;15.15;9.05;;;;;;;;;;5031233;28;20040;-62
2022/03/14 04:45:09;;;;;;;18.70;10.13;;;;;;;;;;5046996;28;20083;-63
2022/03/14 04:47:35;;;;;;;20.55;10.05;;;;;;;;;;5045284;28;20025;-62
2022/03/14 04:50:02;;;;;;;18.20;10.07;;;;;;;;;;5044939;28;20037;-62
2022/03/14 04:52:28;;;;;;;21.20;10.90;;;;;;;;;;5049137;28;20119;-63
2022/03/14 04:54:54;;;;;;;17.40;10.18;;;;;;;;;;5029981;28;20240;-62
2022/03/14 04:57:19;;;;;;;16.63;9.15;;;;;;;;;;5032100;28;20391;-62
2022/03/14 04:59:45;;;;;;;19.35;9.45;;;;;;;;;;5043932;28;20029;-61
2022/03/14 05:02:10;;;;;;;16.08;9.35;;;;;;;;;;5042626;28;20086;-61
2022/03/14 05:04:37;;;;;;;18.83;9.32;;;;;;;;;;5031029;28;20509;-61
2022/03/14 05:07:02;;;;;;;14.93;8.65;;;;;;;;;;5046752;28;20094;-61
2022/03/14 05:09:27;;;;;;;14.38;8.85;;;;;;;;;;5032591;28;20029;-61
2022/03/14 05:11:53;;;;;;;17.23;9.43;;;;;;;;;;5048588;28;20372;-61
2022/03/14 05:14:18;;;;;;;17.15;8.63;;;;;;;;;;5045224;28;20041;-61
2022/03/14 05:16:45;;;;;;;15.30;8.93;;;;;;;;;;5050432;28;20029;-62
2022/03/14 05:19:11;;;;;;;14.77;8.63;;;;;;;;;;5042427;28;20028;-61
2022/03/14 05:21:36;;;;;;;15.63;8.68;;;;;;;;;;5051072;28;20083;-62
2022/03/14 05:24:02;;;;;;;14.98;8.52;;;;;;;;;;5052112;28;20033;-61
2022/03/14 05:26:27;;;;;;;16.40;8.82;;;;;;;;;;5061114;28;20064;-61
2022/03/14 05:28:52;;;;;;;16.45;8.75;;;;;;;;;;5051095;28;20033;-61
2022/03/14 05:31:19;;;;;;;14.68;8.13;;;;;;;;;;5036455;28;20033;-61
2022/03/14 05:33:44;;;;;;;14.40;8.27;;;;;;;;;;5053830;28;20040;-62
2022/03/14 05:36:10;;;;;;;16.75;8.73;;;;;;;;;;5052193;28;20029;-62
2022/03/14 05:38:35;;;;;;;15.75;8.73;;;;;;;;;;5052276;28;20482;-61
2022/03/14 05:41:01;;;;;;;15.13;8.55;;;;;;;;;;5051960;28;20029;-62
2022/03/14 05:43:27;;;;;;;14.90;8.55;;;;;;;;;;5051158;28;20028;-61
2022/03/14 05:45:53;;;;;;;13.40;8.27;;;;;;;;;;5043042;28;20056;-62
2022/03/14 05:48:19;;;;;;;16.05;9.00;;;;;;;;;;5052904;28;20060;-63
2022/03/14 05:50:44;;;;;;;18.40;9.07;;;;;;;;;;5048933;28;20029;-62
2022/03/14 05:53:12;;;;;;;13.98;8.35;;;;;;;;;;5047795;28;20036;-61
2022/03/14 05:55:37;;;;;;;15.88;9.00;;;;;;;;;;5033455;28;20030;-62
2022/03/14 05:58:05;;;;;;;16.50;8.82;;;;;;;;;;5045667;28;20037;-61
2022/03/14 06:00:31;;;;;;;17.67;9.48;;;;;;;;;;5044172;28;20040;-61
2022/03/14 06:02:56;;;;;;;16.75;9.63;;;;;;;;;;5047535;28;20033;-61
2022/03/14 06:05:22;;;;;;;15.85;8.90;;;;;;;;;;5041017;28;20056;-61
2022/03/14 06:07:48;;;;;;;15.35;9.65;;;;;;;;;;5048505;28;20120;-61
2022/03/14 06:10:15;;;;;;;18.10;10.32;;;;;;;;;;5042968;28;20042;-62
2022/03/14 06:12:41;;;;;;;18.15;10.10;;;;;;;;;;5043619;28;20062;-61
2022/03/14 06:15:09;;;;;;;19.45;10.00;;;;;;;;;;5049669;28;20079;-61
2022/03/14 06:17:35;;;;;;;19.40;10.90;;;;;;;;;;5052598;28;20029;-61
2022/03/14 06:20:00;;;;;;;17.45;10.27;;;;;;;;;;5038355;28;20056;-61
2022/03/14 06:22:26;;;;;;;20.02;10.40;;;;;;;;;;5036852;28;20360;-61
2022/03/14 06:24:51;;;;;;;16.88;9.77;;;;;;;;;;5052320;28;20037;-61
2022/03/14 06:27:19;;;;;;;17.20;9.75;;;;;;;;;;5052494;28;20029;-61
2022/03/14 06:29:45;;;;;;;18.23;10.15;;;;;;;;;;5052316;28;20068;-69
2022/03/14 06:32:11;;;;;;;17.73;8.65;;;;;;;;;;5049577;28;20068;-71
2022/03/14 06:34:38;;;;;;;15.20;9.18;;;;;;;;;;5043922;28;20047;-73
2022/03/14 06:37:07;;;;;;;14.15;7.93;;;;;;;;;;5059301;28;20093;-67
2022/03/14 06:39:32;;;;;;;17.98;8.30;;;;;;;;;;5048226;28;20090;-68
2022/03/14 06:41:58;;;;;;;15.60;7.93;;;;;;;;;;5034797;28;20041;-69
2022/03/14 06:44:29;;;;;;;15.55;8.32;;;;;;;;;;5041540;28;20029;-70
2022/03/14 06:46:55;;;;;;;12.45;6.63;;;;;;;;;;5051962;28;20045;-68
2022/03/14 06:49:21;;;;;;;15.30;8.23;;;;;;;;;;5034301;28;20502;-71
2022/03/14 06:51:47;;;;;;;14.68;8.50;;;;;;;;;;5032049;28;20034;-68
2022/03/14 06:54:13;;;;;;;15.45;8.60;;;;;;;;;;5051621;28;20032;-70
2022/03/14 06:56:38;;;;;;;16.90;8.88;;;;;;;;;;5051256;28;20544;-70
2022/03/14 06:59:04;;;;;;;15.50;8.70;;;;;;;;;;5037880;28;20038;-71
2022/03/14 07:01:30;;;;;;;14.63;8.43;;;;;;;;;;5043367;28;20037;-71
2022/03/14 07:03:56;;;;;;;15.43;8.60;;;;;;;;;;5046775;28;20037;-72
2022/03/14 07:06:22;;;;;;;18.05;9.15;;;;;;;;;;5055654;28;20029;-73
2022/03/14 07:08:47;;;;;;;16.02;9.45;;;;;;;;;;5050556;28;20037;-68
2022/03/14 07:11:13;;;;;;;16.17;9.02;;;;;;;;;;5052511;28;20037;-67
2022/03/14 07:13:38;;;;;;;17.48;9.63;;;;;;;;;;5047269;28;20120;-71
2022/03/14 07:16:04;;;;;;;15.38;8.88;;;;;;;;;;5048561;28;20055;-70
2022/03/14 07:18:30;;;;;;;17.08;9.45;;;;;;;;;;5041363;28;20101;-69
2022/03/14 07:20:56;;;;;;;18.02;9.43;;;;;;;;;;5047754;28;20045;-66
2022/03/14 07:23:22;;;;;;;14.05;7.82;;;;;;;;;;5049762;28;20469;-71
2022/03/14 07:25:49;;;;;;;19.85;8.90;;;;;;;;;;5050134;28;20044;-69
2022/03/14 07:28:17;;;;;;;17.15;8.88;;;;;;;;;;5049642;28;20409;-67
2022/03/14 07:30:42;;;;;;;15.90;8.73;;;;;;;;;;5046507;28;20109;-68
2022/03/14 07:33:08;;;;;;;18.63;9.38;;;;;;;;;;5051471;28;20115;-71
2022/03/14 07:35:34;;;;;;;20.75;9.60;;;;;;;;;;5045517;28;20109;-67
2022/03/14 07:38:00;;;;;;;18.95;9.98;;;;;;;;;;5043466;28;20049;-67
2022/03/14 07:40:26;;;;;;;20.25;9.68;;;;;;;;;;5050517;28;20035;-69
2022/03/14 07:42:53;;;;;;;17.58;9.05;;;;;;;;;;5050226;28;20037;-70
2022/03/14 07:45:21;;;;;;;14.77;8.52;;;;;;;;;;5051654;28;20029;-67
2022/03/14 07:47:47;;;;;;;15.32;9.30;;;;;;;;;;5050984;28;20028;-68
2022/03/14 07:50:15;;;;;;;20.50;10.05;;;;;;;;;;5054602;28;20043;-72
2022/03/14 07:52:42;;;;;;;20.00;10.38;;;;;;;;;;5059579;28;20037;-72
2022/03/14 07:55:08;;;;;;;18.33;9.32;;;;;;;;;;5052008;28;20069;-71
2022/03/14 07:57:34;;;;;;;20.52;8.57;;;;;;;;;;5051408;28;20103;-66
2022/03/14 08:00:00;;;;;;;17.40;10.07;;;;;;;;;;5055944;28;20112;-72
2022/03/14 08:02:26;;;;;;;16.83;9.82;;;;;;;;;;5064848;28;20111;-71
2022/03/14 08:04:51;;;;;;;19.33;9.45;;;;;;;;;;5066157;28;20029;-72
2022/03/14 08:07:18;;;;;;;16.20;9.05;;;;;;;;;;5047715;28;20063;-70
2022/03/14 08:09:43;;;;;;;15.77;8.68;;;;;;;;;;5048582;28;20414;-71
2022/03/14 08:12:12;;;;;;;18.70;9.63;;;;;;;;;;5050424;28;20037;-73
2022/03/14 08:14:38;;;;;;;18.02;8.57;;;;;;;;;;5047944;28;20069;-70
2022/03/14 08:17:04;;;;;;;23.83;8.88;;;;;;;;;;5056886;28;20110;-74
2022/03/14 08:19:29;;;;;;;14.50;7.88;;;;;;;;;;5060552;28;20084;-76
2022/03/14 08:21:56;;;;;;;15.45;8.45;;;;;;;;;;5043312;28;20037;-75
2022/03/14 08:24:22;;;;;;;16.08;7.75;;;;;;;;;;5070604;28;20052;-74
2022/03/14 08:26:48;;;;;;;15.82;7.97;;;;;;;;;;5037378;28;20065;-68
2022/03/14 08:29:14;;;;;;;15.50;8.60;;;;;;;;;;5032566;28;20463;-75
2022/03/14 08:31:39;;;;;;;15.13;7.97;;;;;;;;;;5030170;28;20034;-74
2022/03/14 08:34:06;;;;;;;14.60;7.85;;;;;;;;;;5048259;28;20044;-75
2022/03/14 08:36:32;;;;;;;16.70;7.80;;;;;;;;;;5044967;28;20060;-66
2022/03/14 08:38:58;;;;;;;14.50;7.55;;;;;;;;;;5047135;28;20467;-76
2022/03/14 08:41:23;;;;;;;14.02;7.90;;;;;;;;;;5041917;28;20069;-74
2022/03/14 08:43:49;;;;;;;15.52;8.35;;;;;;;;;;5050783;28;20043;-72
2022/03/14 08:46:18;;;;;;;14.80;8.45;;;;;;;;;;5061196;28;20036;-71
2022/03/14 08:49:52;;;;;;;17.80;8.95;;;;;;;;;;5063210;28;20484;-72
2022/03/14 08:52:17;;;;;;;14.90;8.38;;;;;;;;;;5006160;28;20041;-72
2022/03/14 08:54:42;;;;;;;15.88;8.50;;;;;;;;;;5053538;28;20044;-73
2022/03/14 08:57:09;;;;;;;18.23;8.60;;;;;;;;;;5054393;28;20114;-73
2022/03/14 08:59:34;;;;;;;17.45;8.60;;;;;;;;;;5050982;28;20048;-72
2022/03/14 09:02:00;;;;;;;19.35;9.23;;;;;;;;;;5053707;28;20450;-73
2022/03/14 09:04:25;;;;;;;16.23;8.93;;;;;;;;;;5055152;28;20032;-69
2022/03/14 09:06:51;;;;;;;19.40;8.48;;;;;;;;;;5053328;28;20025;-69
2022/03/14 09:09:18;;;;;;;16.65;8.75;;;;;;;;;;5055015;28;20033;-69
2022/03/14 09:11:44;;;;;;;20.25;9.55;;;;;;;;;;5053971;28;20094;-76
2022/03/14 09:14:10;;;;;;;16.10;9.32;;;;;;;;;;5052267;28;20029;-75
2022/03/14 09:16:35;;;;;;;16.30;7.97;;;;;;;;;;5045176;28;20095;-71
2022/03/14 09:19:01;;;;;;;17.55;8.65;;;;;;;;;;5070238;28;20074;-71
2022/03/14 09:21:27;;;;;;;15.05;7.78;;;;;;;;;;5030637;28;20050;-73
2022/03/14 09:23:53;;;;;;;17.90;8.48;;;;;;;;;;5033614;28;20037;-73
2022/03/14 09:26:19;;;;;;;16.63;9.30;;;;;;;;;;5035090;28;20044;-76
2022/03/14 09:28:44;;;;;;;15.15;8.63;;;;;;;;;;5034069;28;20033;-75
2022/03/14 09:31:17;;;;;;;16.52;8.82;;;;;;;;;;5067775;28;20044;-72
2022/03/14 09:33:42;;;;;;;15.68;8.68;;;;;;;;;;5059042;28;20100;-73
2022/03/14 09:36:08;;;;;;;15.15;9.27;;;;;;;;;;5032706;28;20046;-73
2022/03/14 09:38:34;;;;;;;15.25;8.75;;;;;;;;;;5038615;28;20029;-67
2022/03/14 09:41:04;;;;;;;15.70;8.23;;;;;;;;;;5054327;28;20107;-75
2022/03/14 09:43:31;;;;;;;20.38;8.85;;;;;;;;;;5053907;28;20031;-73
2022/03/14 09:45:59;;;;;;;16.58;9.13;;;;;;;;;;5043554;28;20034;-72
2022/03/14 09:48:25;;;;;;;18.15;9.38;;;;;;;;;;5064619;28;20039;-75
2022/03/14 09:50:52;;;;;;;18.88;9.65;;;;;;;;;;5061700;28;20276;-74
2022/03/14 09:53:18;;;;;;;18.77;9.27;;;;;;;;;;5036197;28;20109;-73
2022/03/14 09:55:46;;;;;;;17.33;9.38;;;;;;;;;;5040743;28;20108;-73
2022/03/14 09:58:20;;;;;;;19.77;8.95;;;;;;;;;;5052025;28;20039;-73
2022/03/14 10:00:47;;;;;;;17.38;9.43;;;;;;;;;;5051382;28;20075;-71
2022/03/14 10:03:15;;;;;;;19.08;9.00;;;;;;;;;;5053305;28;20025;-71
2022/03/14 10:05:42;;;;;;;16.65;8.57;;;;;;;;;;5045097;28;20041;-68
2022/03/14 10:08:07;;;;;;;16.88;8.40;;;;;;;;;;5045742;28;20474;-69
2022/03/14 10:10:37;;;;;;;14.68;8.07;;;;;;;;;;5049125;28;20087;-66
2022/03/14 10:13:03;;;;;;;14.73;7.75;;;;;;;;;;5035460;28;20075;-72
2022/03/14 10:15:32;;;;;;;12.80;7.82;;;;;;;;;;5045113;28;20052;-67
2022/03/14 10:17:58;;;;;;;12.68;7.47;;;;;;;;;;5053045;28;20032;-67
2022/03/14 10:20:25;;;;;;;14.45;7.70;;;;;;;;;;5051991;28;20052;-68
2022/03/14 10:22:51;;;;;;;11.00;5.35;;;;;;;;;;5045079;28;20040;-66
2022/03/14 10:25:21;;;;;;;15.10;6.50;;;;;;;;;;5054019;28;20033;-69
2022/03/14 10:27:54;;;;;;;13.93;7.60;;;;;;;;;;5051701;28;20087;-68
2022/03/14 10:30:27;;;;;;;14.45;6.68;;;;;;;;;;5035526;28;20045;-71
2022/03/14 10:33:10;;;;;;;17.10;6.68;;;;;;;;;;5032617;28;20474;-71
2022/03/14 10:35:38;;;;;;;10.43;5.65;;;;;;;;;;5049501;28;20076;-68
2022/03/14 10:38:06;;;;;;;13.65;6.55;;;;;;;;;;5053054;28;20505;-68
2022/03/14 10:40:37;;;;;;;12.05;6.72;;;;;;;;;;5053103;28;20083;-64
2022/03/14 10:43:20;;;;;;;11.23;6.82;;;;;;;;;;5049387;28;20052;-70
2022/03/14 10:45:46;;;;;;;14.60;6.85;;;;;;;;;;5032802;28;20387;-70
2022/03/14 10:48:12;;;;;;;16.38;7.75;;;;;;;;;;5058584;28;20043;-71
2022/03/14 10:50:39;;;;;;;15.40;7.75;;;;;;;;;;5066864;28;20498;-73
2022/03/14 10:53:16;;;;;;;12.93;7.72;;;;;;;;;;5052546;28;20029;-72
2022/03/14 10:55:47;;;;;;;12.23;6.97;;;;;;;;;;5051558;28;20130;-73
2022/03/14 10:58:14;;;;;;;14.40;7.28;;;;;;;;;;5034815;28;20409;-71
2022/03/14 11:00:50;;;;;;;14.38;6.68;;;;;;;;;;5037492;28;20465;-67
2022/03/14 11:03:25;;;;;;;8.65;5.15;;;;;;;;;;5052382;28;20068;-72
2022/03/14 11:05:52;;;;;;;12.25;6.57;;;;;;;;;;5049560;28;20047;-70
2022/03/14 11:08:35;;;;;;;13.60;6.53;;;;;;;;;;5062398;28;20029;-71
2022/03/14 11:11:06;;;;;;;12.05;7.07;;;;;;;;;;5052496;28;20107;-73
2022/03/14 11:13:34;;;;;;;10.40;6.07;;;;;;;;;;5051880;28;20083;-64
2022/03/14 11:15:59;;;;;;;12.35;6.38;;;;;;;;;;5051564;28;20078;-66
2022/03/14 11:18:25;;;;;;;14.35;6.30;;;;;;;;;;5054546;28;20120;-66
2022/03/14 11:20:52;;;;;;;13.35;6.07;;;;;;;;;;5051031;28;20052;-67
2022/03/14 11:23:18;;;;;;;10.52;6.32;;;;;;;;;;5050814;28;20436;-67
2022/03/14 11:25:44;;;;;;;10.80;6.45;;;;;;;;;;5052170;28;20064;-68
2022/03/14 11:28:15;;;;;;;14.32;6.45;;;;;;;;;;5052180;28;20758;-68
2022/03/14 11:30:43;;;;;;;13.50;5.82;;;;;;;;;;5055257;28;20036;-66
2022/03/14 11:33:10;;;;;;;14.40;6.10;;;;;;;;;;5050219;28;20073;-67
2022/03/14 11:35:36;;;;;;;12.25;5.55;;;;;;;;;;5056974;28;20112;-67
2022/03/14 11:38:02;;;;;;;12.07;4.88;;;;;;;;;;5046218;28;20116;-71
2022/03/14 11:40:29;;;;;;;9.48;5.63;;;;;;;;;;5049899;28;20509;-70
2022/03/14 11:42:55;;;;;;;9.00;5.90;;;;;;;;;;5049962;28;20482;-66
2022/03/14 11:45:21;;;;;;;15.40;7.72;;;;;;;;;;5050672;28;20112;-70
2022/03/14 11:47:47;;;;;;;15.50;8.30;;;;;;;;;;5057540;28;20064;-72
2022/03/14 11:50:14;;;;;;;19.80;9.50;;;;;;;;;;5045028;28;20064;-68
2022/03/14 11:52:41;;;;;;;17.65;8.43;;;;;;;;;;5049546;28;20083;-73
2022/03/14 11:55:19;;;;;;;17.02;8.90;;;;;;;;;;5050292;28;20056;-73
2022/03/14 11:57:47;;;;;;;13.88;9.27;;;;;;;;;;5051025;28;20025;-73
2022/03/14 12:00:21;;;;;;;16.88;8.77;;;;;;;;;;5047078;28;20029;-68
2022/03/14 12:02:48;;;;;;;17.25;8.73;;;;;;;;;;5045036;28;20095;-69
2022/03/14 12:05:13;;;;;;;14.77;9.68;;;;;;;;;;5051622;28;20056;-72
2022/03/14 12:07:39;;;;;;;15.82;9.48;;;;;;;;;;5044325;28;20068;-71
2022/03/14 12:10:33;;;;;;;13.93;7.95;;;;;;;;;;5044051;28;20033;-67
2022/03/14 12:12:59;;;;;;;12.95;7.45;;;;;;;;;;5035644;28;20027;-71
2022/03/14 12:15:41;;;;;;;16.92;7.80;;;;;;;;;;5050703;28;20037;-72
2022/03/14 12:18:25;;;;;;;13.77;7.72;;;;;;;;;;5040466;28;20033;-70
2022/03/14 12:21:03;;;;;;;13.52;7.55;;;;;;;;;;5034035;28;20654;-73
2022/03/14 12:23:33;;;;;;;14.15;7.18;;;;;;;;;;5038896;28;20040;-70
2022/03/14 12:26:00;;;;;;;15.43;6.90;;;;;;;;;;5030190;28;20033;-72
2022/03/14 12:28:34;;;;;;;14.27;6.93;;;;;;;;;;5043522;28;20029;-72
2022/03/14 12:31:13;;;;;;;13.88;6.25;;;;;;;;;;5055999;28;20037;-72
2022/03/14 12:33:41;;;;;;;14.00;6.60;;;;;;;;;;5038616;28;20078;-71
2022/03/14 12:36:22;;;;;;;12.10;6.05;;;;;;;;;;5038719;28;20120;-70
2022/03/14 12:39:06;;;;;;;12.63;5.90;;;;;;;;;;5048172;28;20123;-70
2022/03/14 12:41:42;;;;;;;11.95;6.18;;;;;;;;;;5046974;28;20046;-66
2022/03/14 12:44:24;;;;;;;11.48;5.82;;;;;;;;;;5035308;28;20113;-67
2022/03/14 12:46:52;;;;;;;17.38;6.60;;;;;;;;;;5070170;28;20118;-72
2022/03/14 12:49:39;;;;;;;12.68;6.28;;;;;;;;;;5044326;28;20087;-71
2022/03/14 12:52:15;;;;;;;11.30;5.75;;;;;;;;;;5031155;28;20041;-74
2022/03/14 12:54:41;;;;;;;14.68;6.00;;;;;;;;;;5049225;28;20059;-70
2022/03/14 12:57:07;;;;;;;15.82;6.25;;;;;;;;;;5050874;28;20526;-70
2022/03/14 12:59:33;;;;;;;14.18;5.78;;;;;;;;;;5064473;28;20123;-66
2022/03/14 13:01:58;;;;;;;12.48;5.95;;;;;;;;;;5070321;28;20033;-68
2022/03/14 13:04:24;;;;;;;14.10;6.40;;;;;;;;;;5034184;28;20025;-72
2022/03/14 13:06:50;;;;;;;11.77;5.72;;;;;;;;;;5029608;28;20129;-71
2022/03/14 13:09:30;;;;;;;11.98;5.35;;;;;;;;;;5047339;28;20033;-71
2022/03/14 13:11:59;;;;;;;13.25;6.03;;;;;;;;;;5029076;28;20037;-72
2022/03/14 13:14:25;;;;;;;13.65;5.72;;;;;;;;;;5059455;28;20086;-72
2022/03/14 13:16:55;;;;;;;11.15;5.57;;;;;;;;;;5032707;28;20042;-72
2022/03/14 13:19:25;;;;;;;11.43;5.57;;;;;;;;;;5031157;28;20128;-72
2022/03/14 13:21:51;;;;;;;11.02;5.45;;;;;;;;;;5045700;28;20038;-70
2022/03/14 13:24:17;;;;;;;11.35;4.68;;;;;;;;;;5029387;28;20041;-68
2022/03/14 13:26:47;;;;;;;10.48;4.65;;;;;;;;;;5030733;28;20068;-72
2022/03/14 13:29:14;;;;;;;9.83;4.10;;;;;;;;;;5050251;28;20492;-73
2022/03/14 13:31:41;;;;;;;11.77;4.50;;;;;;;;;;5045349;28;20254;-68
2022/03/14 13:34:08;;;;;;;12.00;4.80;;;;;;;;;;5034181;28;20053;-72
2022/03/14 13:36:41;;;;;;;12.65;4.80;;;;;;;;;;5048462;28;20112;-66
2022/03/14 13:39:10;;;;;;;12.98;5.40;;;;;;;;;;5045132;28;20078;-72
2022/03/14 13:41:38;;;;;;;10.00;5.32;;;;;;;;;;5052663;28;20037;-67
2022/03/14 13:44:04;;;;;;;14.18;6.43;;;;;;;;;;5053708;28;20057;-73
2022/03/14 13:46:34;;;;;;;11.88;5.45;;;;;;;;;;5049705;28;20090;-73
2022/03/14 13:48:59;;;;;;;11.40;5.75;;;;;;;;;;5050756;28;20116;-68
2022/03/14 13:51:35;;;;;;;14.00;5.40;;;;;;;;;;5052906;28;20183;-69
2022/03/14 13:54:06;;;;;;;11.38;5.43;;;;;;;;;;5053596;28;20040;-72
2022/03/14 13:56:40;;;;;;;10.77;5.45;;;;;;;;;;5053005;28;20037;-68
2022/03/14 13:59:05;;;;;;;11.48;4.57;;;;;;;;;;5042647;28;20044;-73
2022/03/14 14:01:39;;;;;;;10.35;4.97;;;;;;;;;;5052937;28;20093;-69
2022/03/14 14:04:25;;;;;;;10.20;5.00;;;;;;;;;;5052345;28;20051;-71
2022/03/14 14:06:52;;;;;;;10.23;4.60;;;;;;;;;;5038482;28;20045;-69
2022/03/14 14:09:29;;;;;;;7.47;4.07;;;;;;;;;;5041136;28;20041;-70
2022/03/14 14:12:23;;;;;;;9.88;5.00;;;;;;;;;;5030867;28;20558;-69
2022/03/14 14:14:56;;;;;;;9.25;4.28;;;;;;;;;;5038224;28;20076;-70
2022/03/14 14:17:33;;;;;;;8.38;4.60;;;;;;;;;;5053916;28;20530;-73
2022/03/14 14:20:03;;;;;;;9.73;4.38;;;;;;;;;;5051816;28;20049;-74
2022/03/14 14:22:31;;;;;;;9.82;5.82;;;;;;;;;;5050267;28;20041;-71
2022/03/14 14:24:57;;;;;;;12.27;5.60;;;;;;;;;;5039159;28;20120;-72
2022/03/14 14:27:26;;;;;;;8.18;4.65;;;;;;;;;;5053873;28;20040;-74
2022/03/14 14:29:57;;;;;;;12.20;5.60;;;;;;;;;;5034693;28;20519;-71
2022/03/14 14:32:23;;;;;;;9.40;5.47;;;;;;;;;;5053348;28;20383;-69
2022/03/14 14:34:49;;;;;;;12.82;5.68;;;;;;;;;;5052456;28;20037;-72
2022/03/14 14:37:14;;;;;;;8.60;4.20;;;;;;;;;;5053389;28;20115;-73